Time;durP1;ratioP1;P1;durP2;ratioP2;P2;SDS_P1;SDS_P2;PMS_P1;PMS_P2;Temp;Humidity;BMP_temperature;BMP_pressure;BME280_temperature;BME280_humidity;BME280_pressure;Samples;Min_cycle;Max_cycle;Signal;HPM_P1;HPM_P2
2022/05/18 00:02:26;;;;;;;5.68;1.77;;;;;;;9.24;55.91;99187.44;4982040;28;20117;-75
2022/05/18 00:04:51;;;;;;;3.60;1.88;;;;;;;9.23;55.64;99190.47;4982830;28;20027;-75
2022/05/18 00:07:17;;;;;;;4.13;2.10;;;;;;;9.22;55.33;99194.31;4981269;28;20022;-75
2022/05/18 00:09:43;;;;;;;4.45;2.08;;;;;;;9.19;55.43;99189.34;4981888;28;20027;-75
2022/05/18 00:12:09;;;;;;;2.78;1.90;;;;;;;9.17;55.50;99197.81;4982319;28;20030;-75
2022/05/18 00:14:35;;;;;;;3.90;1.90;;;;;;;9.15;55.66;99194.56;4978084;28;20105;-74
2022/05/18 00:17:03;;;;;;;3.60;2.13;;;;;;;9.14;55.11;99192.06;4973319;28;20547;-75
2022/05/18 00:19:29;;;;;;;6.90;2.50;;;;;;;9.14;55.52;99192.06;4971938;28;20034;-75
2022/05/18 00:21:55;;;;;;;3.90;2.20;;;;;;;9.14;54.92;99195.66;4975204;28;20022;-74
2022/05/18 00:24:21;;;;;;;5.78;2.22;;;;;;;9.10;55.35;99202.75;4980701;28;20047;-75
2022/05/18 00:26:46;;;;;;;4.88;2.05;;;;;;;9.09;54.92;99195.63;4972717;28;20033;-74
2022/05/18 00:29:11;;;;;;;4.88;2.35;;;;;;;9.06;55.37;99201.63;4971146;28;20042;-75
2022/05/18 00:31:37;;;;;;;4.35;2.35;;;;;;;9.01;54.72;99196.13;4975310;28;20113;-74
2022/05/18 00:34:02;;;;;;;3.47;1.92;;;;;;;9.00;55.40;99199.97;4981587;28;20030;-74
2022/05/18 00:36:28;;;;;;;4.40;2.17;;;;;;;8.99;55.11;99199.13;4981093;28;20022;-75
2022/05/18 00:38:53;;;;;;;6.05;2.60;;;;;;;8.97;54.84;99203.25;4982565;28;20467;-75
2022/05/18 00:41:19;;;;;;;4.50;2.47;;;;;;;8.94;54.86;99205.41;4980977;28;20047;-75
2022/05/18 00:43:48;;;;;;;4.28;2.22;;;;;;;8.94;55.38;99204.59;4981317;28;20037;-75
2022/05/18 00:46:14;;;;;;;7.10;2.15;;;;;;;8.93;55.18;99217.44;4982218;28;20034;-75
2022/05/18 00:48:41;;;;;;;4.07;2.30;;;;;;;8.90;55.23;99219.91;4981187;28;20031;-75
2022/05/18 00:51:12;;;;;;;4.15;2.17;;;;;;;8.86;55.04;99227.81;4979555;28;20554;-75
2022/05/18 00:53:44;;;;;;;4.10;2.13;;;;;;;8.81;54.58;99229.69;4980911;28;20027;-75
2022/05/18 00:56:15;;;;;;;4.40;2.30;;;;;;;8.79;55.16;99238.16;4979768;28;20499;-74
2022/05/18 00:58:47;;;;;;;4.75;2.58;;;;;;;8.77;55.37;99229.38;4980387;28;20049;-75
2022/05/18 01:01:13;;;;;;;4.72;2.47;;;;;;;8.76;55.04;99239.53;4982121;28;20505;-75
2022/05/18 01:03:43;;;;;;;5.85;2.90;;;;;;;8.74;55.04;99241.69;4982367;28;20081;-74
2022/05/18 01:06:13;;;;;;;6.57;2.28;;;;;;;8.73;54.83;99239.25;4980753;28;20031;-75
2022/05/18 01:08:47;;;;;;;4.25;2.80;;;;;;;8.71;54.91;99241.41;4980515;28;20033;-75
2022/05/18 01:11:13;;;;;;;6.05;2.72;;;;;;;8.68;54.81;99248.22;4979644;28;20034;-75
2022/05/18 01:13:39;;;;;;;4.78;2.75;;;;;;;8.66;54.67;99246.84;4980252;28;20414;-75
2022/05/18 01:16:05;;;;;;;5.72;3.30;;;;;;;8.62;54.90;99254.75;4981707;28;20106;-74
2022/05/18 01:18:31;;;;;;;7.45;3.58;;;;;;;8.58;54.81;99256.34;4980833;28;20125;-74
2022/05/18 01:20:57;;;;;;;7.82;4.07;;;;;;;8.55;54.87;99263.19;4980713;28;20157;-75
2022/05/18 01:23:48;;;;;;;7.68;3.97;;;;;;;8.52;55.41;99263.72;4981580;28;20037;-75
2022/05/18 01:26:32;;;;;;;6.93;4.30;;;;;;;8.51;54.94;99263.97;4979460;28;20135;-75
2022/05/18 01:29:00;;;;;;;7.68;4.78;;;;;;;8.44;54.95;99261.44;4979990;28;20051;-75
2022/05/18 01:31:47;;;;;;;10.23;5.07;;;;;;;8.39;54.75;99267.69;4979910;28;20054;-75
2022/05/18 01:34:13;;;;;;;9.18;4.57;;;;;;;8.35;54.99;99272.03;4979462;28;20579;-74
2022/05/18 01:36:39;;;;;;;7.38;3.50;;;;;;;8.33;55.10;99277.78;4980863;28;20031;-75
2022/05/18 01:39:08;;;;;;;6.90;3.25;;;;;;;8.31;55.07;99288.13;4981247;28;20029;-73
2022/05/18 01:41:41;;;;;;;6.97;3.17;;;;;;;8.27;55.14;99281.53;4986038;28;20113;-73
2022/05/18 01:44:06;;;;;;;9.85;3.63;;;;;;;8.23;55.07;99285.03;4975066;28;20034;-72
2022/05/18 01:46:32;;;;;;;9.88;3.63;;;;;;;8.19;55.13;99277.34;4972743;28;20504;-73
2022/05/18 01:48:58;;;;;;;7.68;3.63;;;;;;;8.17;55.02;99287.72;4972451;28;20427;-73
2022/05/18 01:51:39;;;;;;;6.68;2.85;;;;;;;8.15;54.82;99289.88;4972300;28;20060;-72
2022/05/18 01:54:05;;;;;;;7.88;2.58;;;;;;;8.14;55.19;99287.44;4971894;28;20097;-72
2022/05/18 01:56:31;;;;;;;3.33;2.10;;;;;;;8.12;54.95;99284.13;4972117;28;20479;-72
2022/05/18 01:58:57;;;;;;;4.97;2.35;;;;;;;8.10;55.07;99302.69;4972134;28;20081;-73
2022/05/18 02:01:22;;;;;;;4.53;2.30;;;;;;;8.06;55.14;99294.19;4971998;28;20090;-73
2022/05/18 02:03:48;;;;;;;7.30;2.30;;;;;;;8.04;55.24;99304.56;4971868;28;20085;-73
2022/05/18 02:06:14;;;;;;;6.28;2.30;;;;;;;7.97;55.10;99296.56;4970739;28;20118;-73
2022/05/18 02:08:41;;;;;;;7.03;2.70;;;;;;;7.95;55.00;99309.66;4974733;28;20113;-73
2022/05/18 02:11:14;;;;;;;4.85;2.70;;;;;;;7.95;54.75;99311.56;4978612;28;20077;-73
2022/05/18 02:13:39;;;;;;;7.32;3.25;;;;;;;7.93;55.04;99303.66;4981538;28;20027;-72
2022/05/18 02:16:05;;;;;;;7.43;2.40;;;;;;;7.90;54.91;99309.63;4978445;28;20046;-73
2022/05/18 02:18:30;;;;;;;7.47;2.20;;;;;;;7.85;54.80;99315.03;4978748;28;20046;-72
2022/05/18 02:20:56;;;;;;;7.72;3.08;;;;;;;7.80;55.17;99314.97;4978560;28;20049;-73
2022/05/18 02:23:21;;;;;;;7.05;2.13;;;;;;;7.75;54.74;99324.75;4978170;28;20058;-72
2022/05/18 02:25:47;;;;;;;5.28;2.17;;;;;;;7.71;54.74;99337.25;4977959;28;20025;-72
2022/05/18 02:28:12;;;;;;;4.43;1.92;;;;;;;7.69;54.42;99339.41;4978049;28;20053;-73
2022/05/18 02:30:38;;;;;;;4.97;2.10;;;;;;;7.68;54.31;99347.88;4978209;28;20026;-75
2022/05/18 02:33:03;;;;;;;4.28;2.15;;;;;;;7.65;54.61;99348.38;4977958;28;20467;-73
2022/05/18 02:35:29;;;;;;;4.30;2.10;;;;;;;7.61;54.37;99356.25;4979042;28;20091;-73
2022/05/18 02:37:55;;;;;;;6.10;1.92;;;;;;;7.56;54.73;99348.00;4995941;28;20045;-73
2022/05/18 02:40:20;;;;;;;6.63;2.38;;;;;;;7.53;54.61;99357.53;4996704;28;20034;-73
2022/05/18 02:42:45;;;;;;;6.75;2.58;;;;;;;7.50;54.36;99366.22;4996348;28;20033;-73
2022/05/18 02:45:12;;;;;;;3.60;2.38;;;;;;;7.47;54.02;99369.47;4996667;28;20019;-73
2022/05/18 02:47:38;;;;;;;2.92;2.00;;;;;;;7.40;54.46;99372.38;4996773;28;20057;-73
2022/05/18 02:50:05;;;;;;;6.47;2.30;;;;;;;7.39;53.98;99375.34;4978352;28;20027;-73
2022/05/18 02:52:31;;;;;;;8.00;2.35;;;;;;;7.37;54.28;99381.06;4978039;28;20503;-73
2022/05/18 02:57:41;;;;;;;4.28;2.30;;;;;;;7.30;54.15;99388.59;4977360;28;20118;-72
2022/05/18 03:00:08;;;;;;;6.22;3.35;;;;;;;7.26;54.34;99390.19;4977385;28;20062;-73
2022/05/18 03:02:34;;;;;;;4.22;2.28;;;;;;;7.18;54.43;99396.91;4977201;28;20054;-73
2022/05/18 03:05:00;;;;;;;4.00;2.05;;;;;;;7.15;54.38;99402.88;4978143;28;20027;-72
2022/05/18 03:07:25;;;;;;;4.05;2.20;;;;;;;7.12;53.92;99404.19;4977837;28;20373;-73
2022/05/18 03:09:51;;;;;;;3.28;2.50;;;;;;;7.08;53.82;99408.50;4978118;28;20392;-73
2022/05/18 03:12:16;;;;;;;5.72;2.15;;;;;;;7.07;54.32;99412.31;4960523;28;20388;-73
2022/05/18 03:14:42;;;;;;;4.47;2.22;;;;;;;7.06;53.69;99427.03;4978023;28;20090;-73
2022/05/18 03:17:07;;;;;;;5.60;2.40;;;;;;;7.05;54.21;99424.53;4976757;28;20023;-73
2022/05/18 03:19:32;;;;;;;4.30;2.40;;;;;;;7.06;53.84;99431.63;4975778;28;20489;-74
2022/05/18 03:24:42;;;;;;;4.47;2.20;;;;;;;7.03;54.00;99432.13;4974939;28;20516;-73
2022/05/18 03:27:09;;;;;;;3.95;2.33;;;;;;;7.02;54.24;99439.50;4974798;28;20101;-73
2022/05/18 03:29:35;;;;;;;4.55;2.50;;;;;;;7.03;53.97;99443.03;4974628;28;20047;-73
2022/05/18 03:32:00;;;;;;;8.60;2.35;;;;;;;7.02;53.93;99446.84;4974897;28;20035;-73
2022/05/18 03:34:26;;;;;;;7.68;2.75;;;;;;;6.99;53.93;99442.72;4974918;28;20427;-73
2022/05/18 03:36:51;;;;;;;3.15;2.05;;;;;;;6.96;54.36;99451.41;4977304;28;20549;-73
2022/05/18 03:39:18;;;;;;;6.13;2.35;;;;;;;6.89;53.94;99451.56;4974822;28;20018;-73
2022/05/18 03:41:44;;;;;;;4.82;1.92;;;;;;;6.87;53.74;99456.44;4974463;28;20110;-73
2022/05/18 03:44:09;;;;;;;4.72;2.15;;;;;;;6.88;54.02;99457.25;4974635;28;20380;-73
2022/05/18 03:46:35;;;;;;;6.20;2.60;;;;;;;6.86;54.02;99465.69;4974903;28;20023;-73
2022/05/18 03:49:00;;;;;;;4.90;2.35;;;;;;;6.82;54.40;99468.06;4993128;28;20030;-72
2022/05/18 03:51:26;;;;;;;4.15;2.17;;;;;;;6.81;54.07;99477.31;4991224;28;20503;-72
2022/05/18 03:53:52;;;;;;;4.03;2.28;;;;;;;6.80;54.27;99477.59;4991036;28;20038;-73
2022/05/18 03:56:18;;;;;;;7.07;2.22;;;;;;;6.80;53.99;99483.03;4987283;28;20074;-73
2022/05/18 03:58:44;;;;;;;6.40;1.90;;;;;;;6.80;54.16;99483.84;4974537;28;20027;-72
2022/05/18 04:01:10;;;;;;;4.30;2.08;;;;;;;6.82;54.01;99483.63;4974383;28;20031;-72
2022/05/18 04:03:42;;;;;;;3.47;1.67;;;;;;;6.83;54.00;99477.91;4972885;28;20372;-72
2022/05/18 04:06:08;;;;;;;7.22;2.40;;;;;;;6.88;54.09;99487.25;4974098;28;20085;-73
2022/05/18 04:08:33;;;;;;;5.15;2.40;;;;;;;6.92;54.21;99492.00;4974311;28;20023;-73
2022/05/18 04:10:59;;;;;;;4.10;2.10;;;;;;;6.96;53.85;99492.31;4974222;28;20019;-73
2022/05/18 04:13:25;;;;;;;8.20;2.78;;;;;;;6.98;53.92;99490.97;4974098;28;20105;-73
2022/05/18 04:15:51;;;;;;;4.60;2.10;;;;;;;7.04;54.31;99496.53;4973893;28;20015;-73
2022/05/18 04:18:17;;;;;;;5.70;2.20;;;;;;;7.06;54.41;99495.22;4974455;28;20022;-73
2022/05/18 04:20:44;;;;;;;5.47;2.47;;;;;;;7.11;54.01;99494.47;4974435;28;20051;-73
2022/05/18 04:23:10;;;;;;;6.72;2.47;;;;;;;7.17;53.75;99504.38;4990474;28;20085;-73
2022/05/18 04:25:37;;;;;;;6.15;2.70;;;;;;;7.21;53.86;99505.53;4992000;28;20080;-73
2022/05/18 04:28:03;;;;;;;7.25;3.03;;;;;;;7.27;54.21;99506.44;4991508;28;20125;-72
2022/05/18 04:30:30;;;;;;;6.07;2.75;;;;;;;7.31;53.94;99510.34;4991442;28;20511;-73
2022/05/18 04:32:58;;;;;;;9.07;2.65;;;;;;;7.36;54.10;99517.75;4977040;28;20035;-73
2022/05/18 04:35:25;;;;;;;5.65;2.85;;;;;;;7.40;53.74;99513.47;4973530;28;20062;-73
2022/05/18 04:37:51;;;;;;;4.07;2.30;;;;;;;7.42;54.22;99514.03;4991468;28;20088;-72
2022/05/18 04:40:17;;;;;;;6.95;2.80;;;;;;;7.44;54.03;99511.88;4991876;28;20026;-73
2022/05/18 04:42:43;;;;;;;10.35;2.85;;;;;;;7.49;53.60;99528.34;4973355;28;20023;-73
2022/05/18 04:45:11;;;;;;;7.97;2.60;;;;;;;7.53;53.79;99525.97;4973733;28;20023;-73
2022/05/18 04:47:37;;;;;;;7.25;2.90;;;;;;;7.57;53.95;99524.38;4974010;28;20133;-74
2022/05/18 04:50:04;;;;;;;6.78;2.53;;;;;;;7.60;53.98;99519.25;4974017;28;20018;-73
2022/05/18 04:52:29;;;;;;;5.82;2.40;;;;;;;7.64;53.56;99532.41;4972576;28;20061;-74
2022/05/18 04:54:55;;;;;;;9.93;3.10;;;;;;;7.70;53.82;99528.66;4975292;28;20093;-74
2022/05/18 04:57:22;;;;;;;4.90;2.33;;;;;;;7.74;53.48;99533.38;4994882;28;20023;-74
2022/05/18 04:59:48;;;;;;;6.55;2.75;;;;;;;7.80;52.97;99545.19;4993080;28;20057;-74
2022/05/18 05:02:15;;;;;;;4.63;2.47;;;;;;;7.84;53.22;99540.88;4992637;28;20431;-75
2022/05/18 05:04:41;;;;;;;6.55;2.60;;;;;;;7.91;53.63;99546.19;4992631;28;20065;-74
2022/05/18 05:07:06;;;;;;;5.82;2.67;;;;;;;7.96;53.44;99550.88;4990916;28;20121;-74
2022/05/18 05:09:32;;;;;;;5.45;2.92;;;;;;;8.04;53.66;99558.63;4993031;28;20449;-75
2022/05/18 05:11:57;;;;;;;9.20;2.70;;;;;;;8.08;53.12;99562.53;4992890;28;20593;-74
2022/05/18 05:14:23;;;;;;;6.50;2.70;;;;;;;8.14;53.32;99561.53;4985962;28;20112;-74
2022/05/18 05:16:48;;;;;;;6.53;2.50;;;;;;;8.20;53.14;99568.69;4992575;28;20435;-74
2022/05/18 05:19:14;;;;;;;7.20;2.70;;;;;;;8.25;52.95;99567.94;4992114;28;20034;-74
2022/05/18 05:21:43;;;;;;;5.60;2.72;;;;;;;8.29;52.87;99562.78;4992099;28;20061;-74
2022/05/18 05:24:14;;;;;;;7.75;2.55;;;;;;;8.35;52.87;99569.97;4992260;28;20072;-75
2022/05/18 05:26:41;;;;;;;4.68;2.60;;;;;;;8.43;52.80;99569.53;4992570;28;20397;-74
2022/05/18 05:29:07;;;;;;;10.35;2.80;;;;;;;8.50;52.68;99574.81;4992111;28;20085;-74
2022/05/18 05:31:33;;;;;;;6.78;2.88;;;;;;;8.56;52.98;99578.47;4992842;28;20039;-74
2022/05/18 05:33:58;;;;;;;4.97;2.40;;;;;;;8.62;52.60;99581.00;4991866;28;20038;-75
2022/05/18 05:36:24;;;;;;;6.75;2.53;;;;;;;8.68;52.55;99589.25;4992559;28;20034;-74
2022/05/18 05:38:49;;;;;;;6.80;2.70;;;;;;;8.75;52.06;99590.72;4992318;28;20026;-74
2022/05/18 05:41:15;;;;;;;5.82;2.60;;;;;;;8.83;52.31;99586.69;4992602;28;20030;-74
2022/05/18 05:43:41;;;;;;;4.65;2.10;;;;;;;8.89;52.50;99588.38;4991101;28;20421;-74
2022/05/18 05:46:18;;;;;;;5.63;1.77;;;;;;;8.98;51.73;99593.41;4992361;28;20022;-75
2022/05/18 05:48:45;;;;;;;6.30;2.50;;;;;;;9.05;52.02;99591.28;4991937;28;20474;-74
2022/05/18 05:51:14;;;;;;;6.30;2.83;;;;;;;9.11;51.75;99589.44;4991401;28;20434;-74
2022/05/18 05:53:41;;;;;;;4.63;2.40;;;;;;;9.20;51.72;99593.34;4992157;28;20041;-74
2022/05/18 05:56:07;;;;;;;5.75;2.22;;;;;;;9.26;51.60;99592.31;4991889;28;20479;-75
2022/05/18 05:58:35;;;;;;;6.50;2.22;;;;;;;9.32;51.71;99596.75;4992066;28;20475;-75
2022/05/18 06:01:01;;;;;;;7.05;2.70;;;;;;;9.40;51.36;99603.66;4988743;28;20042;-75
2022/05/18 06:03:27;;;;;;;6.50;2.35;;;;;;;9.48;51.04;99605.94;4985139;28;20038;-74
2022/05/18 06:05:55;;;;;;;7.00;2.63;;;;;;;9.56;51.12;99610.09;5001010;28;20033;-74
2022/05/18 06:08:20;;;;;;;5.78;2.20;;;;;;;9.62;50.36;99609.06;4993982;28;20073;-75
2022/05/18 06:10:46;;;;;;;6.22;2.50;;;;;;;9.70;50.97;99610.47;5006243;28;20034;-76
2022/05/18 06:13:12;;;;;;;5.03;2.17;;;;;;;9.74;50.79;99610.78;4993673;28;20038;-74
2022/05/18 06:15:37;;;;;;;7.72;2.08;;;;;;;9.80;50.72;99616.03;4998726;28;20030;-74
2022/05/18 06:18:03;;;;;;;3.00;1.90;;;;;;;9.88;50.79;99620.19;4989854;28;20042;-72
2022/05/18 06:20:29;;;;;;;5.35;2.00;;;;;;;9.95;50.34;99618.06;4993671;28;20025;-73
2022/05/18 06:22:57;;;;;;;7.78;3.10;;;;;;;10.01;50.24;99618.91;4991741;28;20037;-74
2022/05/18 06:25:23;;;;;;;7.80;2.35;;;;;;;10.07;50.21;99628.81;4990720;28;20384;-74
2022/05/18 06:27:48;;;;;;;5.15;1.90;;;;;;;10.14;49.38;99628.63;4989265;28;20039;-74
2022/05/18 06:30:14;;;;;;;6.47;2.30;;;;;;;10.21;49.48;99631.13;4993943;28;20034;-73
2022/05/18 06:32:39;;;;;;;4.82;2.30;;;;;;;10.27;49.53;99622.63;4989510;28;20382;-74
2022/05/18 06:35:06;;;;;;;3.90;1.98;;;;;;;10.34;49.72;99629.81;4989875;28;20037;-72
2022/05/18 06:37:32;;;;;;;4.43;2.00;;;;;;;10.40;49.46;99640.56;4990298;28;20042;-73
2022/05/18 06:39:57;;;;;;;4.30;1.88;;;;;;;10.46;49.15;99635.94;4992719;28;20056;-76
2022/05/18 06:42:23;;;;;;;4.95;2.08;;;;;;;10.56;49.13;99640.66;4955915;28;20150;-76
2022/05/18 06:44:49;;;;;;;7.03;2.45;;;;;;;10.65;49.12;99646.44;4959696;28;20042;-77
2022/05/18 06:47:15;;;;;;;5.15;2.17;;;;;;;10.71;48.57;99646.22;4963548;28;20027;-76
2022/05/18 06:49:41;;;;;;;3.47;1.80;;;;;;;10.76;48.63;99653.63;4964735;28;20027;-74
2022/05/18 06:52:09;;;;;;;3.63;1.80;;;;;;;10.80;47.69;99652.00;4964281;28;20530;-75
2022/05/18 06:54:38;;;;;;;5.80;1.90;;;;;;;10.79;48.07;99666.00;4966273;28;20023;-75
2022/05/18 06:57:04;;;;;;;3.38;1.73;;;;;;;10.82;47.74;99665.44;4969112;28;20042;-75
2022/05/18 06:59:29;;;;;;;4.68;2.20;;;;;;;10.81;47.55;99656.41;4970183;28;20042;-75
2022/05/18 07:01:55;;;;;;;4.18;1.88;;;;;;;10.84;47.03;99668.75;4965569;28;20034;-73
2022/05/18 07:04:21;;;;;;;5.18;1.95;;;;;;;10.89;47.63;99673.44;4959855;28;20027;-74
2022/05/18 07:06:47;;;;;;;2.28;1.58;;;;;;;10.95;47.71;99673.19;4962255;28;20102;-75
2022/05/18 07:09:15;;;;;;;5.00;1.90;;;;;;;10.99;47.24;99681.72;4968613;28;20114;-75
2022/05/18 07:11:42;;;;;;;5.53;1.75;;;;;;;11.01;46.42;99680.34;4969796;28;20025;-75
2022/05/18 07:14:08;;;;;;;5.20;1.60;;;;;;;11.10;47.00;99688.88;4969129;28;20031;-75
2022/05/18 07:16:34;;;;;;;2.83;1.50;;;;;;;11.17;46.98;99688.66;4969125;28;20117;-76
2022/05/18 07:19:00;;;;;;;4.78;1.48;;;;;;;11.28;46.54;99695.00;4980853;28;20047;-75
2022/05/18 07:21:26;;;;;;;3.60;1.40;;;;;;;11.35;46.17;99692.81;4982456;28;20046;-75
2022/05/18 07:23:53;;;;;;;3.53;1.50;;;;;;;11.42;46.22;99695.28;4964701;28;20035;-75
2022/05/18 07:26:19;;;;;;;3.50;1.65;;;;;;;11.49;45.42;99697.78;4960940;28;20517;-73
2022/05/18 07:28:45;;;;;;;2.67;1.27;;;;;;;11.51;45.31;99701.06;4962207;28;20520;-72
2022/05/18 07:31:12;;;;;;;5.15;1.40;;;;;;;11.58;45.27;99698.91;4977856;28;20038;-72
2022/05/18 07:33:37;;;;;;;2.17;1.45;;;;;;;11.63;45.00;99698.91;4980191;28;20034;-74
2022/05/18 07:36:04;;;;;;;4.70;1.20;;;;;;;11.69;45.39;99696.97;4969776;28;20046;-73
2022/05/18 07:38:31;;;;;;;2.70;1.38;;;;;;;11.75;44.78;99704.13;4975285;28;20534;-72
2022/05/18 07:40:57;;;;;;;2.28;1.40;;;;;;;11.80;44.96;99697.84;4968101;28;20034;-72
2022/05/18 07:43:23;;;;;;;4.22;1.40;;;;;;;11.84;44.48;99701.66;4967229;28;20043;-72
2022/05/18 07:45:51;;;;;;;1.45;1.10;;;;;;;11.90;44.70;99695.91;4959163;28;20034;-71
2022/05/18 07:48:17;;;;;;;3.53;1.40;;;;;;;11.96;44.12;99695.91;4972764;28;20042;-72
2022/05/18 07:50:42;;;;;;;3.75;1.30;;;;;;;11.99;43.64;99703.63;4979206;28;20031;-70
2022/05/18 07:53:08;;;;;;;3.28;1.20;;;;;;;12.01;43.92;99705.00;4965898;28;20388;-72
2022/05/18 07:55:34;;;;;;;4.57;1.30;;;;;;;12.06;44.03;99704.16;4970458;28;20033;-72
2022/05/18 07:58:04;;;;;;;3.35;1.13;;;;;;;12.11;44.16;99706.91;4982932;28;20026;-71
2022/05/18 08:00:29;;;;;;;2.25;1.25;;;;;;;12.17;43.90;99694.81;4970984;28;20031;-70
2022/05/18 08:02:54;;;;;;;2.58;1.25;;;;;;;12.31;43.17;99708.03;4966917;28;20027;-71
2022/05/18 08:05:20;;;;;;;5.55;1.38;;;;;;;12.39;43.22;99707.47;4961780;28;20170;-72
2022/05/18 08:07:46;;;;;;;4.50;1.00;;;;;;;12.47;42.80;99712.38;4956140;28;20212;-72
2022/05/18 08:15:46;;;;;;;4.07;1.50;;;;;;;12.64;42.30;99712.06;4969712;28;19929;-71
2022/05/18 08:18:13;;;;;;;2.78;1.40;;;;;;;12.61;42.26;99704.38;4966401;28;20744;-72
2022/05/18 08:20:40;;;;;;;4.07;1.20;;;;;;;12.65;42.20;99708.19;4966780;28;20117;-71
2022/05/18 08:23:07;;;;;;;5.03;1.60;;;;;;;12.74;42.32;99708.47;4967265;28;20034;-71
2022/05/18 08:25:32;;;;;;;5.80;1.58;;;;;;;12.84;42.31;99707.59;4966600;28;20035;-71
2022/05/18 08:27:58;;;;;;;3.33;1.30;;;;;;;12.95;41.48;99713.91;4958149;28;20098;-72
2022/05/18 08:30:24;;;;;;;4.22;1.20;;;;;;;12.99;41.77;99716.94;4958976;28;20592;-71
2022/05/18 08:32:50;;;;;;;3.38;1.17;;;;;;;13.05;41.58;99710.28;4964799;28;20039;-73
2022/05/18 08:35:17;;;;;;;5.50;1.70;;;;;;;13.16;41.87;99722.09;4965382;28;20483;-71
2022/05/18 08:37:49;;;;;;;4.43;1.48;;;;;;;13.23;41.32;99717.09;4966421;28;20031;-72
2022/05/18 08:40:37;;;;;;;5.55;1.40;;;;;;;13.27;41.42;99717.34;4969928;28;20022;-72
2022/05/18 08:43:06;;;;;;;2.85;1.50;;;;;;;13.34;41.59;99704.91;4967348;28;20034;-74
2022/05/18 08:45:36;;;;;;;6.18;1.90;;;;;;;13.39;41.47;99707.63;4969433;28;20030;-70
2022/05/18 08:48:37;;;;;;;7.30;1.75;;;;;;;13.48;41.16;99707.88;4960250;28;20514;-72
2022/05/18 08:51:11;;;;;;;6.40;1.70;;;;;;;13.62;41.16;99707.25;4957358;28;20081;-73
2022/05/18 08:53:57;;;;;;;5.65;1.40;;;;;;;13.69;41.22;99710.50;4963966;28;20034;-73
2022/05/18 08:56:32;;;;;;;3.17;1.42;;;;;;;13.81;40.82;99704.63;4966448;28;20041;-73
2022/05/18 08:58:59;;;;;;;2.90;1.25;;;;;;;13.92;40.66;99708.97;4966958;28;20723;-73
2022/05/18 09:01:46;;;;;;;4.72;1.63;;;;;;;14.02;40.61;99710.00;4979605;28;20376;-71
2022/05/18 09:04:31;;;;;;;4.80;1.67;;;;;;;14.15;39.50;99698.28;4967133;28;20663;-72
2022/05/18 09:07:04;;;;;;;7.80;1.42;;;;;;;14.23;39.39;99697.66;4968840;28;20033;-70
2022/05/18 09:12:22;;;;;;;3.10;1.33;;;;;;;14.51;38.94;99691.59;4960013;28;20445;-73
2022/05/18 09:14:48;;;;;;;5.75;1.45;;;;;;;14.61;38.72;99696.19;4965128;28;20034;-72
2022/05/18 09:17:32;;;;;;;5.50;1.90;;;;;;;14.64;37.99;99690.09;4966328;28;20046;-74
2022/05/18 09:20:22;;;;;;;3.55;1.50;;;;;;;14.73;37.84;99696.66;4968320;28;20034;-72
2022/05/18 09:23:09;;;;;;;4.53;1.50;;;;;;;14.77;37.90;99697.72;4965185;28;20041;-73
2022/05/18 09:25:50;;;;;;;5.53;1.60;;;;;;;14.81;37.51;99698.75;4981980;28;20510;-71
2022/05/18 09:28:32;;;;;;;7.93;2.22;;;;;;;14.83;36.83;99691.00;4962801;28;20062;-74
2022/05/18 09:31:21;;;;;;;5.32;1.40;;;;;;;14.87;36.88;99692.06;4956659;28;20031;-72
2022/05/18 09:34:06;;;;;;;3.75;1.40;;;;;;;14.99;37.05;99690.81;4956728;28;21046;-74
2022/05/18 09:36:52;;;;;;;2.88;1.30;;;;;;;15.13;37.12;99697.25;4965991;28;20066;-73
2022/05/18 09:39:23;;;;;;;4.75;1.23;;;;;;;15.22;36.61;99691.09;4966681;28;20030;-73
2022/05/18 09:42:12;;;;;;;2.80;1.60;;;;;;;15.25;36.52;99691.28;4963641;28;20113;-70
2022/05/18 09:44:56;;;;;;;2.58;1.20;;;;;;;15.32;35.83;99686.22;4966482;28;20514;-72
2022/05/18 09:47:26;;;;;;;6.47;1.30;;;;;;;15.39;34.98;99691.38;4969210;28;20034;-71
2022/05/18 09:49:54;;;;;;;2.13;1.17;;;;;;;15.40;35.07;99684.72;4962681;28;20117;-71
2022/05/18 09:52:29;;;;;;;3.10;1.30;;;;;;;15.45;35.40;99690.19;4959784;28;20062;-71
2022/05/18 09:55:00;;;;;;;4.90;1.40;;;;;;;15.54;35.14;99686.75;4958267;28;20055;-72
2022/05/18 09:57:33;;;;;;;2.78;1.40;;;;;;;15.63;34.98;99701.56;4965491;28;20054;-71
2022/05/18 10:00:07;;;;;;;4.20;1.20;;;;;;;15.65;34.27;99702.06;4966455;28;20062;-71
2022/05/18 10:08:20;;;;;;;5.10;1.30;;;;;;;15.74;33.95;99689.19;4965472;28;20034;-72
2022/05/18 10:10:46;;;;;;;4.15;1.13;;;;;;;15.80;33.25;99686.34;4961944;28;20039;-73
2022/05/18 10:13:15;;;;;;;5.22;1.60;;;;;;;15.87;33.37;99690.44;4957927;28;20078;-71
2022/05/18 10:15:48;;;;;;;2.65;1.15;;;;;;;16.02;33.72;99694.03;4958010;28;20034;-71
2022/05/18 10:18:23;;;;;;;4.75;1.63;;;;;;;16.15;33.00;99687.75;4965104;28;20090;-74
2022/05/18 10:21:21;;;;;;;2.45;1.35;;;;;;;16.29;33.43;99689.72;4965874;28;20047;-72
2022/05/18 10:23:56;;;;;;;3.83;1.23;;;;;;;16.38;34.03;99676.81;4965405;28;20030;-71
2022/05/18 10:26:31;;;;;;;4.22;1.08;;;;;;;16.51;33.54;99687.09;4964514;28;20045;-71
2022/05/18 10:29:01;;;;;;;3.58;1.08;;;;;;;16.59;32.91;99684.75;4964903;28;20047;-72
2022/05/18 10:31:37;;;;;;;2.15;1.08;;;;;;;16.70;33.15;99679.81;4966313;28;20039;-72
2022/05/18 10:34:28;;;;;;;2.70;1.05;;;;;;;16.84;33.04;99686.19;4961263;28;20483;-73
2022/05/18 10:36:59;;;;;;;2.90;1.08;;;;;;;16.91;33.26;99681.03;4973307;28;20041;-71
2022/05/18 10:39:41;;;;;;;3.53;1.38;;;;;;;17.03;32.96;99676.94;4970183;28;20042;-71
2022/05/18 10:42:12;;;;;;;5.28;1.05;;;;;;;17.11;32.48;99679.84;4987732;28;20034;-74
2022/05/18 10:44:38;;;;;;;3.40;1.23;;;;;;;17.20;32.21;99679.91;4991573;28;20033;-72
2022/05/18 10:47:27;;;;;;;2.45;0.90;;;;;;;17.29;31.86;99679.19;4993394;28;20538;-73
2022/05/18 10:50:25;;;;;;;;;;;;;;;17.37;31.92;99687.59;4993460;28;20030;-72
2022/05/18 10:53:17;;;;;;;2.45;1.30;;;;;;;17.48;31.68;99682.63;4992414;28;19922;-73
2022/05/18 10:55:54;;;;;;;2.38;1.20;;;;;;;17.63;31.18;99680.63;4988790;28;20434;-73
2022/05/18 10:58:53;;;;;;;5.20;1.20;;;;;;;17.76;31.79;99682.50;4988389;28;20042;-73
2022/05/18 11:01:22;;;;;;;2.50;1.15;;;;;;;17.86;30.54;99682.28;4994849;28;20045;-74
2022/05/18 11:03:53;;;;;;;1.67;0.93;;;;;;;17.91;30.69;99677.72;4997938;28;20038;-73
2022/05/18 11:06:23;;;;;;;3.95;0.80;;;;;;;17.85;30.20;99675.09;4992133;28;20289;-73
2022/05/18 11:08:50;;;;;;;3.83;1.10;;;;;;;17.82;29.98;99670.16;4996162;28;20030;-73
2022/05/18 11:11:40;;;;;;;4.50;0.82;;;;;;;17.83;29.93;99662.66;4991346;28;20490;-73
2022/05/18 11:14:24;;;;;;;2.50;0.90;;;;;;;17.87;29.74;99666.47;4992902;28;20030;-74
2022/05/18 11:17:16;;;;;;;3.78;1.10;;;;;;;17.93;29.99;99659.63;4991940;28;20041;-73
2022/05/18 11:19:59;;;;;;;2.80;1.15;;;;;;;17.93;28.05;99669.91;4993509;28;20034;-74
2022/05/18 11:22:38;;;;;;;4.30;1.20;;;;;;;17.85;28.93;99663.97;4989756;28;20041;-75
2022/05/18 11:25:12;;;;;;;3.05;0.90;;;;;;;17.85;28.70;99663.97;4991046;28;20033;-72
2022/05/18 11:27:47;;;;;;;3.72;1.00;;;;;;;17.88;28.25;99662.53;4993793;28;20082;-73
2022/05/18 11:30:38;;;;;;;2.65;0.90;;;;;;;17.95;27.64;99662.09;4992931;28;20030;-71
2022/05/18 11:33:19;;;;;;;2.80;0.80;;;;;;;17.92;28.48;99654.41;4994074;28;20019;-71
2022/05/18 11:35:53;;;;;;;3.80;1.00;;;;;;;18.02;28.74;99656.13;4992956;28;20030;-72
2022/05/18 11:38:28;;;;;;;5.40;1.10;;;;;;;18.13;28.46;99657.50;4992316;28;20145;-72
2022/05/18 11:41:33;;;;;;;5.55;1.08;;;;;;;18.18;27.78;99657.38;4990860;28;20072;-74
2022/05/18 11:44:02;;;;;;;4.55;0.85;;;;;;;18.24;28.12;99646.94;4993062;28;20026;-71
2022/05/18 11:46:33;;;;;;;2.65;0.80;;;;;;;18.31;26.86;99650.09;4992371;28;20042;-73
2022/05/18 11:49:04;;;;;;;3.33;0.90;;;;;;;18.26;26.70;99650.22;4994607;28;20037;-70
2022/05/18 11:52:04;;;;;;;4.65;1.00;;;;;;;18.27;27.58;99649.06;4995026;28;20089;-71
2022/05/18 11:55:06;;;;;;;2.42;1.10;;;;;;;18.38;27.51;99644.88;4991880;28;20038;-73
2022/05/18 11:57:51;;;;;;;3.97;1.00;;;;;;;18.47;27.30;99646.91;4993987;28;20049;-73
2022/05/18 12:00:51;;;;;;;3.10;0.90;;;;;;;18.50;27.35;99637.94;4990205;28;20117;-73
2022/05/18 12:03:44;;;;;;;4.70;0.90;;;;;;;18.58;27.34;99640.72;4990616;28;20035;-77
2022/05/18 12:06:27;;;;;;;1.83;1.00;;;;;;;18.71;27.19;99647.31;4987705;28;20070;-80
2022/05/18 12:09:11;;;;;;;4.90;1.20;;;;;;;18.87;27.79;99642.13;4990338;28;20022;-73
2022/05/18 12:12:05;;;;;;;2.42;0.90;;;;;;;19.04;27.19;99632.22;4989023;28;20109;-73
2022/05/18 12:14:36;;;;;;;8.68;1.15;;;;;;;19.18;26.99;99634.84;4984129;28;20046;-73